createdAt,value
2018-11-06T00:01:11.642Z,6.00
2018-11-06T00:03:45.054Z,6.00
2018-11-06T00:06:13.302Z,5.90
2018-11-06T00:08:41.402Z,5.90
2018-11-06T00:11:10.567Z,5.80
2018-11-06T00:13:39.038Z,5.70
2018-11-06T00:16:07.860Z,5.80
2018-11-06T00:18:35.930Z,5.70
2018-11-06T00:21:04.067Z,5.70
2018-11-06T00:23:32.174Z,5.60
2018-11-06T00:26:00.254Z,5.60
2018-11-06T00:28:28.338Z,5.60
2018-11-06T00:30:56.418Z,5.50
2018-11-06T00:33:24.493Z,5.60
2018-11-06T00:35:52.578Z,5.60
2018-11-06T00:38:20.658Z,5.70
2018-11-06T00:40:48.741Z,5.70
2018-11-06T00:43:16.839Z,5.80
2018-11-06T00:45:44.916Z,5.70
2018-11-06T00:48:13.034Z,5.70
2018-11-06T00:50:41.115Z,5.60
2018-11-06T00:53:09.214Z,5.60
2018-11-06T00:55:37.296Z,5.60
2018-11-06T00:58:05.399Z,5.60
2018-11-06T01:00:33.615Z,5.60
2018-11-06T01:03:01.720Z,5.60
2018-11-06T01:05:29.790Z,5.60
2018-11-06T01:07:57.875Z,5.60
2018-11-06T01:10:25.950Z,5.50
2018-11-06T01:12:54.043Z,5.50
2018-11-06T01:15:22.123Z,5.50
2018-11-06T01:17:50.199Z,5.50
2018-11-06T01:20:19.032Z,5.40
2018-11-06T01:22:47.420Z,5.40
2018-11-06T01:25:15.798Z,5.30
2018-11-06T01:27:43.881Z,5.20
2018-11-06T01:30:14.520Z,5.30
2018-11-06T01:32:43.186Z,5.30
2018-11-06T01:35:12.379Z,5.30
2018-11-06T01:37:40.891Z,5.30
2018-11-06T01:40:10.871Z,5.30
2018-11-06T01:42:39.030Z,5.30
2018-11-06T01:45:08.977Z,5.30
2018-11-06T01:47:37.255Z,5.30
2018-11-06T01:50:06.178Z,5.30
2018-11-06T01:52:34.270Z,5.40
2018-11-06T01:55:02.356Z,5.30
2018-11-06T01:57:30.450Z,5.30
2018-11-06T01:59:58.534Z,5.30
2018-11-06T02:02:26.644Z,5.30
2018-11-06T02:04:54.718Z,5.30
2018-11-06T02:07:22.859Z,5.30
2018-11-06T02:09:50.939Z,5.30
2018-11-06T02:12:19.014Z,5.30
2018-11-06T02:14:47.103Z,5.40
2018-11-06T02:17:15.187Z,5.40
2018-11-06T02:19:43.266Z,5.40
2018-11-06T02:22:11.361Z,5.30
2018-11-06T02:24:39.543Z,5.40
2018-11-06T02:27:07.628Z,5.40
2018-11-06T02:29:35.714Z,5.40
2018-11-06T02:32:03.783Z,5.50
2018-11-06T02:34:31.854Z,5.50
2018-11-06T02:36:59.942Z,5.40
2018-11-06T02:39:28.026Z,5.30
2018-11-06T02:41:56.134Z,5.30
2018-11-06T02:44:24.210Z,5.30
2018-11-06T02:46:52.296Z,5.20
2018-11-06T02:49:20.376Z,5.20
2018-11-06T02:51:48.438Z,5.20
2018-11-06T02:54:16.510Z,5.10
2018-11-06T02:56:44.603Z,5.10
2018-11-06T02:59:12.670Z,5.10
2018-11-06T03:01:40.746Z,5.10
2018-11-06T03:04:08.820Z,5.10
2018-11-06T03:06:36.911Z,5.00
2018-11-06T03:09:05.923Z,4.90
2018-11-06T03:11:33.998Z,4.90
2018-11-06T03:14:02.077Z,4.90
2018-11-06T03:16:30.131Z,5.10
2018-11-06T03:18:58.205Z,5.30
2018-11-06T03:21:26.274Z,5.30
2018-11-06T03:23:54.343Z,5.30
2018-11-06T03:26:22.418Z,5.20
2018-11-06T03:28:50.666Z,5.10
2018-11-06T03:31:18.715Z,5.10
2018-11-06T03:33:46.804Z,5.10
2018-11-06T03:36:14.879Z,5.00
2018-11-06T03:38:42.930Z,5.00
2018-11-06T03:41:10.994Z,4.90
2018-11-06T03:43:39.064Z,4.90
2018-11-06T03:46:07.128Z,4.80
2018-11-06T03:48:35.194Z,4.70
2018-11-06T03:51:03.256Z,4.70
2018-11-06T03:53:31.334Z,4.60
2018-11-06T03:55:59.406Z,4.60
2018-11-06T03:58:27.526Z,4.60
2018-11-06T04:00:55.587Z,4.70
2018-11-06T04:03:23.651Z,4.90
2018-11-06T04:05:51.718Z,5.20
2018-11-06T04:08:19.783Z,5.30
2018-11-06T04:10:47.842Z,5.50
2018-11-06T04:13:15.906Z,5.60
2018-11-06T04:15:43.966Z,5.50
2018-11-06T04:18:12.019Z,5.30
2018-11-06T04:20:40.075Z,5.30
2018-11-06T04:23:08.134Z,5.30
2018-11-06T04:25:36.199Z,5.30
2018-11-06T04:28:04.266Z,5.30
2018-11-06T04:30:32.339Z,5.30
2018-11-06T04:33:00.419Z,5.20
2018-11-06T04:35:28.473Z,5.10
2018-11-06T04:37:56.534Z,5.00
2018-11-06T04:40:24.609Z,4.90
2018-11-06T04:42:52.667Z,4.80
2018-11-06T04:45:20.742Z,4.80
2018-11-06T04:47:48.824Z,4.90
2018-11-06T04:50:16.886Z,5.00
2018-11-06T04:52:44.966Z,4.80
2018-11-06T04:55:13.582Z,4.70
2018-11-06T04:57:42.070Z,4.70
2018-11-06T05:00:12.074Z,4.60
2018-11-06T05:02:40.474Z,4.70
2018-11-06T05:05:09.163Z,4.70
2018-11-06T05:07:37.835Z,4.70
2018-11-06T05:10:07.352Z,4.70
2018-11-06T05:12:35.434Z,4.80
2018-11-06T05:15:03.524Z,4.90
2018-11-06T05:17:31.732Z,4.90
2018-11-06T05:19:59.799Z,4.80
2018-11-06T05:22:28.003Z,5.30
2018-11-06T05:24:56.093Z,5.40
2018-11-06T05:27:24.222Z,5.20
2018-11-06T05:29:52.219Z,5.40
2018-11-06T05:32:20.282Z,5.70
2018-11-06T05:34:48.400Z,5.30
2018-11-06T05:37:16.431Z,5.00
2018-11-06T05:39:55.942Z,4.80
2018-11-06T05:42:24.015Z,4.70
2018-11-06T05:44:52.086Z,4.60
2018-11-06T05:47:20.163Z,4.70
2018-11-06T05:49:48.235Z,4.80
2018-11-06T05:52:16.308Z,5.00
2018-11-06T05:54:44.386Z,4.80
2018-11-06T05:57:12.438Z,4.80
2018-11-06T05:59:40.506Z,4.80
2018-11-06T06:02:08.567Z,4.70
2018-11-06T06:04:36.650Z,4.80
2018-11-06T06:07:05.050Z,4.90
2018-11-06T06:09:33.111Z,5.10
2018-11-06T06:12:01.184Z,5.30
2018-11-06T06:14:29.246Z,5.60
2018-11-06T06:16:57.381Z,5.70
2018-11-06T06:19:25.366Z,5.50
2018-11-06T06:21:53.439Z,5.30
2018-11-06T06:24:21.502Z,5.20
2018-11-06T06:26:49.566Z,5.00
2018-11-06T06:29:17.648Z,4.90
2018-11-06T06:31:45.722Z,4.80
2018-11-06T06:34:13.774Z,4.70
2018-11-06T06:36:41.830Z,4.70
2018-11-06T06:39:10.439Z,4.70
2018-11-06T06:41:38.902Z,4.80
2018-11-06T06:44:07.181Z,4.70
2018-11-06T06:46:35.450Z,4.60
2018-11-06T06:49:03.515Z,4.60
2018-11-06T06:51:31.907Z,4.70
2018-11-06T06:54:00.060Z,5.00
2018-11-06T06:56:28.074Z,5.30
2018-11-06T06:58:56.943Z,5.50
2018-11-06T07:01:25.214Z,5.50
2018-11-06T07:03:53.814Z,5.50
2018-11-06T07:06:21.906Z,5.40
2018-11-06T07:08:49.970Z,5.40
2018-11-06T07:11:18.223Z,5.40
2018-11-06T07:13:46.267Z,5.50
2018-11-06T07:16:14.318Z,5.60
2018-11-06T07:18:42.499Z,5.50
2018-11-06T07:21:10.442Z,5.60
2018-11-06T07:23:38.503Z,5.60
2018-11-06T07:26:06.555Z,5.70
2018-11-06T07:28:34.724Z,5.70
2018-11-06T07:31:02.898Z,5.80
2018-11-06T07:33:30.974Z,5.90
2018-11-06T07:35:59.169Z,6.00
2018-11-06T07:38:27.084Z,6.10
2018-11-06T07:40:55.235Z,6.20
2018-11-06T07:43:23.217Z,6.20
2018-11-06T07:45:51.287Z,6.20
2018-11-06T07:48:19.342Z,6.30
2018-11-06T07:50:47.390Z,6.30
2018-11-06T07:53:15.470Z,6.40
2018-11-06T07:55:43.580Z,6.50
2018-11-06T07:58:11.580Z,6.50
2018-11-06T08:00:39.647Z,6.70
2018-11-06T08:03:07.715Z,6.90
2018-11-06T08:05:35.775Z,7.10
2018-11-06T08:08:03.847Z,7.30
2018-11-06T08:10:31.907Z,7.40
2018-11-06T08:12:59.967Z,7.50
2018-11-06T08:15:28.039Z,7.70
2018-11-06T08:17:56.091Z,7.90
2018-11-06T08:20:24.204Z,8.10
2018-11-06T08:22:52.227Z,8.10
2018-11-06T08:25:20.275Z,8.20
2018-11-06T08:27:48.544Z,8.30
2018-11-06T08:30:16.485Z,8.40
2018-11-06T08:32:44.721Z,8.50
2018-11-06T08:35:14.303Z,8.70
2018-11-06T08:37:42.699Z,8.80
2018-11-06T08:40:12.098Z,8.90
2018-11-06T08:42:40.150Z,9.00
2018-11-06T08:45:09.475Z,9.00
2018-11-06T08:47:37.527Z,9.10
2018-11-06T08:50:06.691Z,9.20
2018-11-06T08:52:34.754Z,9.40
2018-11-06T08:55:02.813Z,9.50
2018-11-06T08:57:30.862Z,9.60
2018-11-06T08:59:58.923Z,9.80
2018-11-06T09:02:27.012Z,9.80
2018-11-06T09:04:55.047Z,9.80
2018-11-06T09:07:23.103Z,9.90
2018-11-06T09:09:51.187Z,9.90
2018-11-06T09:12:19.243Z,9.90
2018-11-06T09:14:47.452Z,9.80
2018-11-06T09:17:15.520Z,9.70
2018-11-06T09:19:43.662Z,9.80
2018-11-06T09:22:11.977Z,9.70
2018-11-06T09:24:40.019Z,9.80
2018-11-06T09:27:08.073Z,10.00
2018-11-06T09:29:36.142Z,10.00
2018-11-06T09:32:05.022Z,10.10
2018-11-06T09:34:33.102Z,10.10
2018-11-06T09:37:01.171Z,10.30
2018-11-06T09:39:29.224Z,10.40
2018-11-06T09:41:57.305Z,10.40
2018-11-06T09:44:25.385Z,10.50
2018-11-06T09:46:53.458Z,10.70
2018-11-06T09:49:21.519Z,10.90
2018-11-06T09:51:49.642Z,11.00
2018-11-06T09:54:17.646Z,11.10
2018-11-06T09:56:45.702Z,11.20
2018-11-06T09:59:13.771Z,11.20
2018-11-06T10:01:41.850Z,11.30
2018-11-06T10:04:09.915Z,11.30
2018-11-06T10:06:38.118Z,11.30
2018-11-06T10:09:07.851Z,11.30
2018-11-06T10:11:36.066Z,11.40
2018-11-06T10:14:04.482Z,11.60
2018-11-06T10:16:32.567Z,11.60
2018-11-06T10:19:00.636Z,11.60
2018-11-06T10:21:28.694Z,11.80
2018-11-06T10:23:56.751Z,11.60
2018-11-06T10:26:24.823Z,11.80
2018-11-06T10:28:52.900Z,11.90
2018-11-06T10:31:20.959Z,12.00
2018-11-06T10:33:49.051Z,12.20
2018-11-06T10:36:17.111Z,12.20
2018-11-06T10:38:45.167Z,12.30
2018-11-06T10:41:13.227Z,12.20
2018-11-06T10:43:41.320Z,12.30
2018-11-06T10:46:09.338Z,12.50
2018-11-06T10:48:37.395Z,12.50
2018-11-06T10:51:05.708Z,12.60
2018-11-06T10:53:33.772Z,12.70
2018-11-06T10:56:01.827Z,12.80
2018-11-06T10:58:29.886Z,12.80
2018-11-06T11:01:03.511Z,12.90
2018-11-06T11:03:37.875Z,12.90
2018-11-06T11:06:06.042Z,13.00
2018-11-06T11:08:34.105Z,13.00
2018-11-06T11:11:02.181Z,13.00
2018-11-06T11:13:30.361Z,13.10
2018-11-06T11:15:58.329Z,13.30
2018-11-06T11:18:26.381Z,13.30
2018-11-06T11:20:54.451Z,13.30
2018-11-06T11:23:22.515Z,13.40
2018-11-06T11:25:50.659Z,13.30
2018-11-06T11:28:18.669Z,13.50
2018-11-06T11:30:46.722Z,13.60
2018-11-06T11:33:14.801Z,13.60
2018-11-06T11:35:42.863Z,13.70
2018-11-06T11:38:10.926Z,13.70
2018-11-06T11:40:38.982Z,13.90
2018-11-06T11:43:07.058Z,13.80
2018-11-06T11:45:35.159Z,13.90
2018-11-06T11:48:03.196Z,14.00
2018-11-06T11:50:31.230Z,14.30
2018-11-06T11:52:59.302Z,14.40
2018-11-06T11:55:27.358Z,14.40
2018-11-06T11:57:55.427Z,14.40
2018-11-06T12:00:26.690Z,14.50
2018-11-06T12:02:55.214Z,14.50
2018-11-06T12:05:23.274Z,14.60
2018-11-06T12:07:51.358Z,14.50
2018-11-06T12:10:19.411Z,14.60
2018-11-06T12:12:47.484Z,14.70
2018-11-06T12:15:16.764Z,14.80
2018-11-06T12:17:45.660Z,14.60
2018-11-06T12:20:14.354Z,14.60
2018-11-06T12:22:42.410Z,14.60
2018-11-06T12:25:11.176Z,14.50
2018-11-06T12:27:39.170Z,14.60
2018-11-06T12:30:08.997Z,14.80
2018-11-06T12:32:37.410Z,14.80
2018-11-06T12:35:06.303Z,14.80
2018-11-06T12:37:34.379Z,14.80
2018-11-06T12:40:02.422Z,14.80
2018-11-06T12:42:30.471Z,14.90
2018-11-06T12:44:58.531Z,15.20
2018-11-06T12:47:26.593Z,15.40
2018-11-06T12:49:54.899Z,15.50
2018-11-06T12:52:23.048Z,15.60
2018-11-06T12:54:51.106Z,15.70
2018-11-06T12:57:19.178Z,15.70
2018-11-06T12:59:47.243Z,15.80
2018-11-06T13:02:15.315Z,15.80
2018-11-06T13:04:43.374Z,16.10
2018-11-06T13:07:11.483Z,16.40
2018-11-06T13:09:39.539Z,16.40
2018-11-06T13:12:07.859Z,16.20
2018-11-06T13:14:36.035Z,16.20
2018-11-06T13:17:04.127Z,16.40
2018-11-06T13:19:32.187Z,16.30
2018-11-06T13:22:00.246Z,16.20
2018-11-06T13:24:28.308Z,16.10
2018-11-06T13:26:56.378Z,16.00
2018-11-06T13:29:24.659Z,16.00
2018-11-06T13:31:52.795Z,15.90
2018-11-06T13:34:20.858Z,16.00
2018-11-06T13:36:49.078Z,15.80
2018-11-06T13:39:17.138Z,15.70
2018-11-06T13:41:45.199Z,15.70
2018-11-06T13:44:13.515Z,15.60
2018-11-06T13:46:41.315Z,15.70
2018-11-06T13:49:09.376Z,15.70
2018-11-06T13:51:37.446Z,15.50
2018-11-06T13:54:05.607Z,15.30
2018-11-06T13:56:33.680Z,15.30
2018-11-06T13:59:01.744Z,15.20
2018-11-06T14:01:29.822Z,15.30
2018-11-06T14:03:57.974Z,15.30
2018-11-06T14:06:26.030Z,15.10
2018-11-06T14:08:54.095Z,15.30
2018-11-06T14:11:22.181Z,15.30
2018-11-06T14:13:50.243Z,15.30
2018-11-06T14:16:18.341Z,15.40
2018-11-06T14:18:46.400Z,15.40
2018-11-06T14:21:14.486Z,15.30
2018-11-06T14:23:42.546Z,15.20
2018-11-06T14:26:10.613Z,15.30
2018-11-06T14:28:38.662Z,15.30
2018-11-06T14:31:06.727Z,15.30
2018-11-06T14:33:34.825Z,15.20
2018-11-06T14:36:03.054Z,15.10
2018-11-06T14:38:30.974Z,15.10
2018-11-06T14:40:59.038Z,14.90
2018-11-06T14:43:27.132Z,14.70
2018-11-06T14:45:55.205Z,14.70
2018-11-06T14:48:23.343Z,14.60
2018-11-06T14:50:51.347Z,14.50
2018-11-06T14:53:19.415Z,14.40
2018-11-06T14:55:47.525Z,14.40
2018-11-06T14:58:15.539Z,14.30
2018-11-06T15:00:43.602Z,14.20
2018-11-06T15:03:11.662Z,14.10
2018-11-06T15:05:39.802Z,14.00
2018-11-06T15:08:07.778Z,13.80
2018-11-06T15:10:35.846Z,13.60
2018-11-06T15:13:04.036Z,13.40
2018-11-06T15:15:32.100Z,13.30
2018-11-06T15:18:00.154Z,13.20
2018-11-06T15:20:28.237Z,13.20
2018-11-06T15:22:56.290Z,13.10
2018-11-06T15:25:24.385Z,13.00
2018-11-06T15:27:52.441Z,12.80
2018-11-06T15:30:20.494Z,12.70
2018-11-06T15:32:48.560Z,12.60
2018-11-06T15:35:17.972Z,12.50
2018-11-06T15:37:46.063Z,12.50
2018-11-06T15:40:15.644Z,12.40
2018-11-06T15:42:43.818Z,12.30
2018-11-06T15:45:15.987Z,12.30
2018-11-06T15:47:44.887Z,12.20
2018-11-06T15:50:14.093Z,12.10
2018-11-06T15:52:42.763Z,12.10
2018-11-06T15:55:10.822Z,12.00
2018-11-06T15:57:38.910Z,12.00
2018-11-06T16:00:13.061Z,12.00
2018-11-06T16:02:41.409Z,11.90
2018-11-06T16:05:09.558Z,11.90
2018-11-06T16:07:37.951Z,11.90
2018-11-06T16:10:09.407Z,11.80
2018-11-06T16:12:37.482Z,11.80
2018-11-06T16:15:06.109Z,11.70
2018-11-06T16:17:34.209Z,11.70
2018-11-06T16:20:02.295Z,11.60
2018-11-06T16:22:30.798Z,11.60
2018-11-06T16:24:58.899Z,11.50
2018-11-06T16:27:27.255Z,11.50
2018-11-06T16:29:55.331Z,11.50
2018-11-06T16:32:23.399Z,11.50
2018-11-06T16:34:51.563Z,11.30
2018-11-06T16:37:20.043Z,11.20
2018-11-06T16:39:48.143Z,11.10
2018-11-06T16:42:16.223Z,11.00
2018-11-06T16:44:44.287Z,10.90
2018-11-06T16:47:12.359Z,10.80
2018-11-06T16:49:40.420Z,10.80
2018-11-06T16:52:08.490Z,10.80
2018-11-06T16:54:36.579Z,10.80
2018-11-06T16:57:04.696Z,10.80
2018-11-06T16:59:32.737Z,10.80
2018-11-06T17:02:00.743Z,10.90
2018-11-06T17:04:28.834Z,10.90
2018-11-06T17:06:56.891Z,10.90
2018-11-06T17:09:24.962Z,10.90
2018-11-06T17:11:53.021Z,10.90
2018-11-06T17:14:21.078Z,10.80
2018-11-06T17:16:49.146Z,10.70
2018-11-06T17:19:17.194Z,10.70
2018-11-06T17:21:45.258Z,10.70
2018-11-06T17:24:14.230Z,10.70
2018-11-06T17:26:42.317Z,10.70
2018-11-06T17:29:10.378Z,10.60
2018-11-06T17:31:38.459Z,10.70
2018-11-06T17:34:06.575Z,10.70
2018-11-06T17:36:34.651Z,10.60
2018-11-06T17:39:02.746Z,10.60
2018-11-06T17:41:30.819Z,10.60
2018-11-06T17:43:58.895Z,10.60
2018-11-06T17:46:26.975Z,10.60
2018-11-06T17:48:55.058Z,10.60
2018-11-06T17:51:23.118Z,10.50
2018-11-06T17:53:51.201Z,10.40
2018-11-06T17:56:19.268Z,10.30
2018-11-06T17:58:47.338Z,10.30
2018-11-06T18:01:15.436Z,10.20
2018-11-06T18:03:43.516Z,10.20
2018-11-06T18:06:11.567Z,10.10
2018-11-06T18:08:39.634Z,10.00
2018-11-06T18:11:07.691Z,10.00
2018-11-06T18:13:35.763Z,10.00
2018-11-06T18:16:03.879Z,9.90
2018-11-06T18:18:31.959Z,9.90
2018-11-06T18:21:00.022Z,9.90
2018-11-06T18:23:28.081Z,9.80
2018-11-06T18:25:56.232Z,9.80
2018-11-06T18:28:24.234Z,9.80
2018-11-06T18:30:52.315Z,9.90
2018-11-06T18:33:20.363Z,9.80
2018-11-06T18:35:48.499Z,9.70
2018-11-06T18:38:16.741Z,9.70
2018-11-06T18:40:44.826Z,9.60
2018-11-06T18:43:13.005Z,9.50
2018-11-06T18:45:41.187Z,9.50
2018-11-06T18:48:09.284Z,9.50
2018-11-06T18:50:37.473Z,9.50
2018-11-06T18:53:05.877Z,9.50
2018-11-06T18:55:34.116Z,9.60
2018-11-06T18:58:02.254Z,9.60
2018-11-06T19:00:30.263Z,9.60
2018-11-06T19:02:58.339Z,9.60
2018-11-06T19:05:26.461Z,9.60
2018-11-06T19:07:54.507Z,9.50
2018-11-06T19:10:22.637Z,9.50
2018-11-06T19:12:50.789Z,9.50
2018-11-06T19:15:20.342Z,9.50
2018-11-06T19:17:48.747Z,9.50
2018-11-06T19:20:17.016Z,9.60
2018-11-06T19:22:45.481Z,9.50
2018-11-06T19:25:14.154Z,9.60
2018-11-06T19:27:42.262Z,9.40
2018-11-06T19:30:12.583Z,9.30
2018-11-06T19:32:43.119Z,9.20
2018-11-06T19:35:11.206Z,9.10
2018-11-06T19:37:39.978Z,9.00
2018-11-06T19:40:09.251Z,8.90
2018-11-06T19:42:37.623Z,9.00
2018-11-06T19:45:06.234Z,8.90
2018-11-06T19:47:34.306Z,8.90
2018-11-06T19:50:02.519Z,8.80
2018-11-06T19:52:30.547Z,8.80
2018-11-06T19:54:58.582Z,8.80
2018-11-06T19:57:26.668Z,8.80
2018-11-06T19:59:55.095Z,8.70
2018-11-06T20:02:23.135Z,8.70
2018-11-06T20:04:51.203Z,8.60
2018-11-06T20:07:19.461Z,8.50
2018-11-06T20:09:48.210Z,8.50
2018-11-06T20:12:16.925Z,8.50
2018-11-06T20:14:45.644Z,8.40
2018-11-06T20:17:16.857Z,8.40
2018-11-06T20:19:44.906Z,8.40
2018-11-06T20:22:13.082Z,8.40
2018-11-06T20:24:41.243Z,8.30
2018-11-06T20:27:09.332Z,8.20
2018-11-06T20:29:37.389Z,8.30
2018-11-06T20:32:05.550Z,8.40
2018-11-06T20:34:33.636Z,8.40
2018-11-06T20:37:01.714Z,8.30
2018-11-06T20:39:29.780Z,8.20
2018-11-06T20:41:57.851Z,8.20
2018-11-06T20:44:25.922Z,8.20
2018-11-06T20:46:54.012Z,8.20
2018-11-06T20:49:22.075Z,8.10
2018-11-06T20:51:50.139Z,8.00
2018-11-06T20:54:18.199Z,8.00
2018-11-06T20:56:46.258Z,7.90
2018-11-06T20:59:14.306Z,7.90
2018-11-06T21:01:42.371Z,7.90
2018-11-06T21:04:10.423Z,7.90
2018-11-06T21:06:38.462Z,8.00
2018-11-06T21:09:08.746Z,7.90
2018-11-06T21:11:36.970Z,7.90
2018-11-06T21:14:05.272Z,7.90
2018-11-06T21:16:33.310Z,7.90
2018-11-06T21:19:01.358Z,7.90
2018-11-06T21:21:29.502Z,7.90
2018-11-06T21:23:57.559Z,7.90
2018-11-06T21:26:26.865Z,8.00
2018-11-06T21:28:54.838Z,8.00
2018-11-06T21:31:23.080Z,7.90
2018-11-06T21:33:51.278Z,7.80
2018-11-06T21:36:19.271Z,7.80
2018-11-06T21:38:47.452Z,8.00
2018-11-06T21:41:15.531Z,8.00
2018-11-06T21:43:43.627Z,8.00
2018-11-06T21:46:11.722Z,7.90
2018-11-06T21:48:39.895Z,7.80
2018-11-06T21:51:08.018Z,7.70
2018-11-06T21:53:36.085Z,7.70
2018-11-06T21:56:04.290Z,7.70
2018-11-06T21:58:32.404Z,7.70
2018-11-06T22:01:00.415Z,7.60
2018-11-06T22:03:28.532Z,7.60
2018-11-06T22:05:56.624Z,7.60
2018-11-06T22:08:24.806Z,7.60
2018-11-06T22:10:52.942Z,7.60
2018-11-06T22:13:21.014Z,7.50
2018-11-06T22:15:49.122Z,7.40
2018-11-06T22:18:17.196Z,7.40
2018-11-06T22:20:45.295Z,7.30
2018-11-06T22:23:13.379Z,7.20
2018-11-06T22:25:41.422Z,7.20
2018-11-06T22:28:09.491Z,7.20
2018-11-06T22:30:37.574Z,7.40
2018-11-06T22:33:05.727Z,7.40
2018-11-06T22:35:33.778Z,7.30
2018-11-06T22:38:01.919Z,7.30
2018-11-06T22:40:29.956Z,7.30
2018-11-06T22:42:58.025Z,7.30
2018-11-06T22:45:26.111Z,7.30
2018-11-06T22:47:54.162Z,7.40
2018-11-06T22:50:22.265Z,7.40
2018-11-06T22:52:50.330Z,7.30
2018-11-06T22:55:18.403Z,7.30
2018-11-06T22:57:46.458Z,7.20
2018-11-06T23:00:17.943Z,7.20
2018-11-06T23:02:46.017Z,7.10
2018-11-06T23:05:14.470Z,7.10
2018-11-06T23:07:47.983Z,7.00
2018-11-06T23:10:16.051Z,7.00
2018-11-06T23:12:44.110Z,7.00
2018-11-06T23:15:12.203Z,6.90
2018-11-06T23:17:40.267Z,7.00
2018-11-06T23:20:08.997Z,7.00
2018-11-06T23:22:37.023Z,7.00
2018-11-06T23:25:05.576Z,7.00
2018-11-06T23:27:33.602Z,7.00
2018-11-06T23:30:01.671Z,7.00
2018-11-06T23:32:29.725Z,6.90
2018-11-06T23:34:57.807Z,6.90
2018-11-06T23:37:25.923Z,6.90
2018-11-06T23:39:53.986Z,6.90
2018-11-06T23:42:22.046Z,6.90
2018-11-06T23:44:50.099Z,7.00
2018-11-06T23:47:18.163Z,7.00
2018-11-06T23:49:46.210Z,7.00
2018-11-06T23:52:14.283Z,7.00
2018-11-06T23:54:42.366Z,7.00
2018-11-06T23:57:10.438Z,7.10
2018-11-06T23:59:38.484Z,7.20
